createdAt,value
2023-04-21T00:02:01.922Z,3
2023-04-21T00:06:01.799Z,4
2023-04-21T00:10:01.868Z,1
2023-04-21T00:14:01.889Z,3
2023-04-21T00:18:02.123Z,3
2023-04-21T00:22:01.995Z,1
2023-04-21T00:26:02.102Z,4
2023-04-21T00:30:02.202Z,3
2023-04-21T00:34:01.379Z,3
2023-04-21T00:38:01.311Z,3
2023-04-21T00:42:01.402Z,3
2023-04-21T00:46:01.476Z,1
2023-04-21T00:50:01.618Z,4
2023-04-21T00:54:01.437Z,3
2023-04-21T00:58:01.526Z,1
2023-04-21T01:02:01.585Z,1
2023-04-21T01:06:01.525Z,3
2023-04-21T01:10:01.680Z,0
2023-04-21T01:14:01.783Z,3
2023-04-21T01:18:01.740Z,1
2023-04-21T01:22:01.691Z,3
2023-04-21T01:26:01.873Z,4
2023-04-21T01:30:01.963Z,4
2023-04-21T01:34:01.766Z,3
2023-04-21T01:38:01.662Z,4
2023-04-21T01:42:01.750Z,3
2023-04-21T01:46:01.804Z,1
2023-04-21T01:50:01.883Z,3
2023-04-21T01:54:01.917Z,3
2023-04-21T01:58:01.889Z,1
2023-04-21T02:02:02.187Z,3
2023-04-21T02:06:01.288Z,1
2023-04-21T02:10:02.254Z,3
2023-04-21T02:14:02.152Z,4
2023-04-21T02:18:01.388Z,3
2023-04-21T02:22:01.227Z,4
2023-04-21T02:26:01.316Z,3
2023-04-21T02:30:01.464Z,3
2023-04-21T02:34:01.587Z,1
2023-04-21T02:38:01.752Z,1
2023-04-21T02:42:01.892Z,3
2023-04-21T02:46:01.917Z,3
2023-04-21T02:50:01.420Z,3
2023-04-21T02:54:01.468Z,3
2023-04-21T02:58:01.408Z,3
2023-04-21T03:02:01.547Z,3
2023-04-21T03:06:01.648Z,3
2023-04-21T03:10:01.965Z,3
2023-04-21T03:14:02.187Z,3
2023-04-21T03:18:01.438Z,3
2023-04-21T03:22:01.485Z,3
2023-04-21T03:26:01.424Z,3
2023-04-21T03:30:01.627Z,3
2023-04-21T03:34:01.746Z,3
2023-04-21T03:38:04.038Z,3
2023-04-21T03:42:01.355Z,3
2023-04-21T03:46:02.034Z,3
2023-04-21T03:50:02.040Z,3
2023-04-21T03:54:02.071Z,4
2023-04-21T03:58:02.206Z,4
2023-04-21T04:02:01.642Z,4
2023-04-21T04:06:01.711Z,4
2023-04-21T04:10:01.977Z,4
2023-04-21T04:14:02.207Z,4
2023-04-21T04:18:01.439Z,4
2023-04-21T04:22:01.465Z,4
2023-04-21T04:26:01.548Z,3
2023-04-21T04:30:01.719Z,4
2023-04-21T04:34:01.791Z,4
2023-04-21T04:38:01.867Z,3
2023-04-21T04:42:01.840Z,3
2023-04-21T04:46:01.906Z,3
2023-04-21T04:50:02.043Z,3
2023-04-21T04:54:02.059Z,3
2023-04-21T04:58:02.129Z,3
2023-04-21T05:02:01.996Z,3
2023-04-21T05:06:02.074Z,3
2023-04-21T05:10:02.021Z,3
2023-04-21T05:14:02.201Z,3
2023-04-21T05:18:02.282Z,3
2023-04-21T05:22:01.266Z,3
2023-04-21T05:26:04.209Z,3
2023-04-21T05:30:01.970Z,3
2023-04-21T05:34:01.894Z,3
2023-04-21T05:38:01.939Z,3
2023-04-21T05:42:01.768Z,4
2023-04-21T05:46:01.715Z,4
2023-04-21T05:50:01.707Z,4
2023-04-21T05:54:01.787Z,4
2023-04-21T05:58:01.820Z,4
2023-04-21T06:02:02.118Z,4
2023-04-21T06:06:01.275Z,4
2023-04-21T06:10:01.364Z,4
2023-04-21T06:14:01.530Z,4
2023-04-21T06:18:01.606Z,4
2023-04-21T06:22:01.705Z,4
2023-04-21T06:26:01.885Z,4
2023-04-21T06:30:01.952Z,4
2023-04-21T06:34:02.169Z,4
2023-04-21T06:38:01.420Z,4
2023-04-21T06:42:01.391Z,4
2023-04-21T06:46:01.439Z,4
2023-04-21T06:50:01.476Z,4
2023-04-21T06:54:01.586Z,3
2023-04-21T06:58:01.673Z,4
2023-04-21T07:02:02.286Z,6
2023-04-21T07:06:01.319Z,3
2023-04-21T07:10:01.250Z,4
2023-04-21T07:14:01.333Z,4
2023-04-21T07:18:01.694Z,1
2023-04-21T07:22:01.427Z,4
2023-04-21T07:26:01.320Z,4
2023-04-21T07:30:01.697Z,3
2023-04-21T07:34:01.559Z,4
2023-04-21T07:38:01.424Z,4
2023-04-21T07:42:01.458Z,1
2023-04-21T07:46:01.527Z,4
2023-04-21T07:50:01.688Z,4
2023-04-21T07:54:01.860Z,1
2023-04-21T07:58:01.729Z,4
2023-04-21T08:02:01.922Z,4
2023-04-21T08:06:02.058Z,3
2023-04-21T08:10:02.041Z,4
2023-04-21T08:14:01.998Z,4
2023-04-21T08:18:02.047Z,3
2023-04-21T08:22:02.282Z,4
2023-04-21T08:26:02.023Z,4
2023-04-21T08:30:02.031Z,3
2023-04-21T08:34:03.060Z,4
2023-04-21T08:38:01.304Z,3
2023-04-21T08:42:01.245Z,4
2023-04-21T08:46:01.304Z,6
2023-04-21T08:50:02.189Z,4
2023-04-21T08:54:01.396Z,3
2023-04-21T08:58:01.504Z,6
2023-04-21T09:02:02.262Z,6
2023-04-21T09:06:01.728Z,3
2023-04-21T09:10:02.250Z,6
2023-04-21T09:14:02.152Z,6
2023-04-21T09:18:02.013Z,6
2023-04-21T09:22:02.020Z,4
2023-04-21T09:26:02.120Z,4
2023-04-21T09:30:01.376Z,1
2023-04-21T09:34:01.850Z,4
2023-04-21T09:38:01.289Z,7
2023-04-21T09:42:01.681Z,4
2023-04-21T09:46:01.584Z,6
2023-04-21T09:50:02.636Z,4
2023-04-21T09:54:01.639Z,1
2023-04-21T09:58:01.457Z,6
2023-04-21T10:02:02.456Z,5
2023-04-21T10:06:01.401Z,6
2023-04-21T10:10:01.469Z,7
2023-04-21T10:14:01.589Z,6
2023-04-21T10:18:01.634Z,4
2023-04-21T10:22:01.679Z,7
2023-04-21T10:26:01.654Z,7
2023-04-21T10:30:01.751Z,6
2023-04-21T10:34:01.814Z,7
2023-04-21T10:38:01.962Z,6
2023-04-21T10:42:01.955Z,3
2023-04-21T10:46:01.877Z,6
2023-04-21T10:50:02.020Z,7
2023-04-21T10:54:01.753Z,3
2023-04-21T10:58:01.786Z,6
2023-04-21T11:02:01.736Z,6
2023-04-21T11:06:01.497Z,6
2023-04-21T11:10:01.475Z,6
2023-04-21T11:14:01.541Z,7
2023-04-21T11:18:01.638Z,6
2023-04-21T11:22:01.531Z,7
2023-04-21T11:26:01.549Z,7
2023-04-21T11:30:01.610Z,6
2023-04-21T11:34:01.659Z,7
2023-04-21T11:38:01.750Z,7
2023-04-21T11:42:01.920Z,8
2023-04-21T11:46:01.829Z,5
2023-04-21T11:50:01.891Z,5
2023-04-21T11:54:01.962Z,7
2023-04-21T11:58:01.908Z,10
2023-04-21T12:02:01.259Z,7
2023-04-21T12:06:01.350Z,5
2023-04-21T12:10:01.921Z,7
2023-04-21T12:14:01.910Z,8
2023-04-21T12:18:02.132Z,7
2023-04-21T12:22:02.110Z,8
2023-04-21T12:26:02.161Z,8
2023-04-21T12:30:02.080Z,6
2023-04-21T12:34:02.156Z,8
2023-04-21T12:38:02.227Z,8
2023-04-21T12:42:01.400Z,5
2023-04-21T12:46:01.475Z,8
2023-04-21T12:50:01.552Z,8
2023-04-21T12:54:01.725Z,7
2023-04-21T12:58:01.915Z,8
2023-04-21T13:02:01.935Z,5
2023-04-21T13:06:02.030Z,8
2023-04-21T13:10:01.985Z,12
2023-04-21T13:14:01.806Z,11
2023-04-21T13:18:01.721Z,7
2023-04-21T13:22:01.614Z,8
2023-04-21T13:26:01.599Z,7
2023-04-21T13:30:01.694Z,10
2023-04-21T13:34:01.908Z,9
2023-04-21T13:38:01.688Z,7
2023-04-21T13:42:01.770Z,7
2023-04-21T13:46:01.695Z,8
2023-04-21T13:50:01.919Z,11
2023-04-21T13:54:01.950Z,8
2023-04-21T13:58:01.998Z,8
2023-04-21T14:02:02.387Z,9
2023-04-21T14:06:01.333Z,7
2023-04-21T14:10:01.359Z,8
2023-04-21T14:14:09.423Z,8
2023-04-21T14:18:01.738Z,7
2023-04-21T14:22:01.702Z,10
2023-04-21T14:26:01.694Z,7
2023-04-21T14:30:02.144Z,10
2023-04-21T14:34:02.123Z,9
2023-04-21T14:38:01.912Z,9
2023-04-21T14:42:01.911Z,7
2023-04-21T14:46:01.723Z,8
2023-04-21T14:50:01.902Z,9
2023-04-21T14:54:01.909Z,9
2023-04-21T14:58:01.955Z,10
2023-04-21T15:02:02.143Z,11
2023-04-21T15:06:02.118Z,8
2023-04-21T15:10:02.142Z,11
2023-04-21T15:14:01.848Z,9
2023-04-21T15:18:01.909Z,10
2023-04-21T15:22:01.979Z,11
2023-04-21T15:26:02.047Z,12
2023-04-21T15:30:02.032Z,10
2023-04-21T15:34:01.879Z,10
2023-04-21T15:38:01.418Z,11
2023-04-21T15:42:01.290Z,9
2023-04-21T15:46:01.342Z,8
2023-04-21T15:50:01.457Z,10
2023-04-21T15:54:01.613Z,7
2023-04-21T15:58:01.734Z,10
2023-04-21T16:02:01.902Z,11
2023-04-21T16:06:02.128Z,10
2023-04-21T16:10:02.204Z,11
2023-04-21T16:14:02.206Z,9
2023-04-21T16:18:01.663Z,10
2023-04-21T16:22:01.879Z,12
2023-04-21T16:26:01.950Z,11
2023-04-21T16:30:02.075Z,11
2023-04-21T16:34:02.057Z,9
2023-04-21T16:38:01.994Z,10
2023-04-21T16:42:02.036Z,9
2023-04-21T16:46:01.305Z,12
2023-04-21T16:50:02.228Z,12
2023-04-21T16:54:01.500Z,11
2023-04-21T16:58:01.644Z,11
2023-04-21T17:02:01.465Z,13
2023-04-21T17:06:01.406Z,12
2023-04-21T17:10:01.534Z,13
2023-04-21T17:14:01.615Z,11
2023-04-21T17:18:01.634Z,10
2023-04-21T17:22:01.818Z,11
2023-04-21T17:26:01.872Z,13
2023-04-21T17:30:02.037Z,10
2023-04-21T17:34:01.971Z,13
2023-04-21T17:38:02.046Z,13
2023-04-21T17:42:01.295Z,10
2023-04-21T17:46:01.526Z,13
2023-04-21T17:50:01.616Z,10
2023-04-21T17:54:01.676Z,10
2023-04-21T17:58:01.994Z,10
2023-04-21T18:02:02.163Z,10
2023-04-21T18:06:02.239Z,10
2023-04-21T18:10:02.150Z,12
2023-04-21T18:14:02.090Z,13
2023-04-21T18:18:01.352Z,7
2023-04-21T18:22:01.470Z,12
2023-04-21T18:26:01.620Z,12
2023-04-21T18:30:01.764Z,10
2023-04-21T18:34:01.986Z,7
2023-04-21T18:38:02.054Z,10
2023-04-21T18:42:02.241Z,6
2023-04-21T18:46:01.264Z,10
2023-04-21T18:50:01.489Z,15
2023-04-21T18:54:01.699Z,9
2023-04-21T18:58:02.118Z,9
2023-04-21T19:02:02.149Z,13
2023-04-21T19:06:02.222Z,9
2023-04-21T19:10:02.297Z,10
2023-04-21T19:14:01.908Z,13
2023-04-21T19:18:02.001Z,9
2023-04-21T19:22:02.168Z,10
2023-04-21T19:26:02.217Z,10
2023-04-21T19:30:01.488Z,6
2023-04-21T19:34:02.202Z,9
2023-04-21T19:38:01.293Z,10
2023-04-21T19:42:01.591Z,9
2023-04-21T19:46:01.796Z,12
2023-04-21T19:50:01.985Z,9
2023-04-21T19:54:10.740Z,10
2023-04-21T19:58:01.369Z,10
2023-04-21T20:02:01.804Z,10
2023-04-21T20:06:01.729Z,10
2023-04-21T20:10:01.791Z,15
2023-04-21T20:14:01.967Z,13
2023-04-21T20:18:02.287Z,7
2023-04-21T20:22:02.025Z,9
2023-04-21T20:26:02.114Z,12
2023-04-21T20:30:01.351Z,7
2023-04-21T20:34:01.470Z,9
2023-04-21T20:38:01.675Z,10
2023-04-21T20:42:12.716Z,7
2023-04-21T20:46:02.102Z,12
2023-04-21T20:50:02.265Z,10
2023-04-21T20:54:01.575Z,9
2023-04-21T20:58:01.480Z,9
2023-04-21T21:02:01.825Z,9
2023-04-21T21:06:01.837Z,7
2023-04-21T21:10:02.102Z,10
2023-04-21T21:14:02.231Z,12
2023-04-21T21:18:01.448Z,6
2023-04-21T21:22:01.472Z,7
2023-04-21T21:26:01.533Z,9
2023-04-21T21:30:01.768Z,6
2023-04-21T21:34:01.834Z,7
2023-04-21T21:38:01.916Z,10
2023-04-21T21:42:01.729Z,7
2023-04-21T21:46:02.052Z,10
2023-04-21T21:50:02.238Z,12
2023-04-21T21:54:01.320Z,7
2023-04-21T21:58:01.556Z,10
2023-04-21T22:02:01.418Z,7
2023-04-21T22:06:01.529Z,7
2023-04-21T22:10:01.738Z,9
2023-04-21T22:14:14.523Z,9
2023-04-21T22:18:01.872Z,7
2023-04-21T22:22:01.977Z,9
2023-04-21T22:26:02.004Z,9
2023-04-21T22:30:02.281Z,6
2023-04-21T22:34:01.299Z,9
2023-04-21T22:38:01.464Z,9
2023-04-21T22:42:01.715Z,6
2023-04-21T22:46:02.251Z,9
2023-04-21T22:50:01.297Z,9
2023-04-21T22:54:01.633Z,6
2023-04-21T22:58:01.716Z,6
2023-04-21T23:02:02.082Z,7
2023-04-21T23:06:02.209Z,9
2023-04-21T23:10:02.264Z,7
2023-04-21T23:14:01.441Z,9
2023-04-21T23:18:01.518Z,9
2023-04-21T23:22:01.597Z,3
2023-04-21T23:26:01.757Z,7
2023-04-21T23:30:01.913Z,6
2023-04-21T23:34:02.031Z,7
2023-04-21T23:38:02.204Z,7
2023-04-21T23:42:01.324Z,3
2023-04-21T23:46:01.489Z,9
2023-04-21T23:50:01.500Z,6
2023-04-21T23:54:01.584Z,6
2023-04-21T23:58:01.647Z,9
